createdAt,value
2018-06-24T00:00:39.913Z,15.95
2018-06-24T00:01:39.421Z,15.93
2018-06-24T00:03:35.352Z,15.99
2018-06-24T00:04:35.877Z,15.98
2018-06-24T00:06:31.292Z,15.96
2018-06-24T00:07:32.819Z,16.04
2018-06-24T00:09:27.270Z,15.92
2018-06-24T00:10:27.237Z,15.92
2018-06-24T00:12:24.195Z,15.95
2018-06-24T00:13:23.696Z,15.96
2018-06-24T00:15:19.115Z,15.93
2018-06-24T00:16:19.598Z,15.95
2018-06-24T00:18:16.035Z,15.96
2018-06-24T00:19:15.051Z,15.92
2018-06-24T00:21:11.048Z,15.88
2018-06-24T00:22:11.489Z,15.83
2018-06-24T00:24:08.968Z,15.77
2018-06-24T00:25:06.970Z,15.75
2018-06-24T00:27:03.921Z,15.80
2018-06-24T00:28:02.930Z,15.78
2018-06-24T00:29:58.871Z,15.80
2018-06-24T00:30:59.382Z,15.80
2018-06-24T00:32:54.879Z,15.81
2018-06-24T00:33:54.834Z,15.81
2018-06-24T00:35:51.718Z,15.78
2018-06-24T00:36:50.780Z,15.77
2018-06-24T00:38:46.757Z,15.86
2018-06-24T00:39:47.255Z,15.88
2018-06-24T00:41:43.698Z,15.73
2018-06-24T00:42:43.195Z,15.73
2018-06-24T00:44:39.168Z,15.71
2018-06-24T00:45:38.642Z,15.73
2018-06-24T00:47:34.611Z,15.71
2018-06-24T00:48:34.660Z,15.60
2018-06-24T00:50:30.538Z,15.68
2018-06-24T00:51:31.077Z,15.60
2018-06-24T00:53:27.021Z,15.62
2018-06-24T00:54:26.501Z,15.65
2018-06-24T00:56:22.455Z,15.65
2018-06-24T00:57:22.467Z,15.62
2018-06-24T00:59:18.442Z,15.73
2018-06-24T01:00:18.406Z,15.73
2018-06-24T01:02:15.369Z,15.67
2018-06-24T01:03:14.337Z,15.65
2018-06-24T01:05:10.808Z,15.74
2018-06-24T01:06:10.302Z,15.67
2018-06-24T01:08:06.263Z,15.73
2018-06-24T01:09:06.742Z,15.75
2018-06-24T01:11:02.227Z,15.74
2018-06-24T01:12:02.209Z,15.74
2018-06-24T01:13:59.661Z,15.68
2018-06-24T01:14:58.144Z,15.71
2018-06-24T01:16:55.597Z,15.73
2018-06-24T01:17:54.083Z,15.73
2018-06-24T01:19:50.051Z,15.71
2018-06-24T01:20:50.042Z,15.68
2018-06-24T01:22:45.976Z,15.60
2018-06-24T01:23:46.496Z,15.62
2018-06-24T01:25:42.461Z,15.59
2018-06-24T01:26:41.938Z,15.56
2018-06-24T01:28:38.896Z,15.62
2018-06-24T01:29:37.885Z,15.65
2018-06-24T01:31:33.788Z,15.56
2018-06-24T01:32:33.792Z,15.59
2018-06-24T01:34:31.178Z,15.49
2018-06-24T01:35:29.736Z,15.51
2018-06-24T01:37:25.686Z,15.59
2018-06-24T01:38:25.694Z,15.65
2018-06-24T01:40:22.641Z,15.62
2018-06-24T01:41:21.670Z,15.56
2018-06-24T01:43:19.619Z,15.56
2018-06-24T01:44:18.581Z,15.56
2018-06-24T01:46:16.049Z,15.56
2018-06-24T01:47:15.045Z,15.63
2018-06-24T01:49:12.485Z,15.56
2018-06-24T01:50:10.466Z,15.63
2018-06-24T01:52:06.434Z,15.60
2018-06-24T01:53:06.388Z,15.53
2018-06-24T01:55:02.331Z,15.70
2018-06-24T01:56:02.316Z,15.70
2018-06-24T01:57:58.254Z,15.71
2018-06-24T01:58:58.268Z,15.68
2018-06-24T02:00:54.735Z,15.75
2018-06-24T02:01:54.203Z,15.71
2018-06-24T02:03:50.138Z,15.73
2018-06-24T02:04:50.142Z,15.73
2018-06-24T02:06:46.124Z,15.74
2018-06-24T02:07:46.102Z,15.63
2018-06-24T02:09:42.606Z,15.65
2018-06-24T02:10:42.049Z,15.67
2018-06-24T02:12:38.037Z,15.56
2018-06-24T02:13:37.993Z,15.59
2018-06-24T02:15:34.453Z,15.59
2018-06-24T02:16:33.971Z,15.59
2018-06-24T02:18:29.928Z,15.58
2018-06-24T02:19:30.409Z,15.49
2018-06-24T02:21:26.861Z,15.51
2018-06-24T02:22:26.365Z,15.51
2018-06-24T02:24:21.802Z,15.49
2018-06-24T02:25:21.817Z,15.53
2018-06-24T02:27:17.771Z,15.51
2018-06-24T02:28:17.774Z,15.49
2018-06-24T02:30:13.740Z,15.45
2018-06-24T02:31:14.246Z,15.44
2018-06-24T02:33:09.639Z,15.34
2018-06-24T02:34:09.670Z,15.45
2018-06-24T02:36:05.587Z,15.43
2018-06-24T02:37:05.604Z,15.51
2018-06-24T02:39:02.105Z,15.51
2018-06-24T02:40:01.560Z,15.41
2018-06-24T02:41:57.520Z,15.34
2018-06-24T02:42:57.482Z,15.26
2018-06-24T02:44:53.950Z,15.30
2018-06-24T02:45:53.445Z,15.20
2018-06-24T02:47:49.395Z,15.19
2018-06-24T02:48:49.391Z,15.23
2018-06-24T02:50:46.846Z,15.18
2018-06-24T02:51:45.863Z,15.20
2018-06-24T02:53:41.354Z,15.08
2018-06-24T02:54:41.259Z,15.08
2018-06-24T02:56:37.243Z,15.13
2018-06-24T02:57:37.216Z,15.10
2018-06-24T02:59:35.201Z,15.16
2018-06-24T03:00:33.179Z,15.02
2018-06-24T03:02:29.645Z,15.01
2018-06-24T03:03:29.129Z,14.97
2018-06-24T03:05:25.061Z,14.97
2018-06-24T03:06:25.036Z,14.98
2018-06-24T03:08:20.980Z,14.93
2018-06-24T03:09:20.978Z,14.83
2018-06-24T03:11:17.962Z,14.77
2018-06-24T03:12:16.918Z,14.77
2018-06-24T03:14:12.902Z,14.80
2018-06-24T03:15:12.874Z,14.82
2018-06-24T03:17:09.323Z,14.67
2018-06-24T03:18:08.808Z,14.77
2018-06-24T03:20:05.774Z,14.57
2018-06-24T03:21:05.254Z,14.51
2018-06-24T03:23:00.711Z,14.53
2018-06-24T03:24:02.216Z,14.45
2018-06-24T03:25:56.671Z,14.51
2018-06-24T03:26:56.643Z,14.42
2018-06-24T03:28:52.584Z,14.49
2018-06-24T03:29:53.114Z,14.45
2018-06-24T03:31:49.032Z,14.49
2018-06-24T03:32:49.058Z,14.45
2018-06-24T03:34:44.961Z,14.44
2018-06-24T03:35:45.434Z,14.46
2018-06-24T03:37:40.915Z,14.46
2018-06-24T03:38:40.907Z,14.46
2018-06-24T03:40:37.336Z,14.52
2018-06-24T03:41:36.831Z,14.60
2018-06-24T03:43:34.312Z,14.61
2018-06-24T03:44:34.293Z,14.57
2018-06-24T03:46:32.250Z,14.57
2018-06-24T03:47:30.231Z,14.57
2018-06-24T03:49:26.184Z,14.70
2018-06-24T03:50:26.189Z,14.63
2018-06-24T03:52:24.640Z,14.57
2018-06-24T03:53:24.257Z,14.59
2018-06-24T03:55:20.712Z,14.53
2018-06-24T03:56:20.198Z,14.59
2018-06-24T03:58:18.711Z,14.63
2018-06-24T03:59:18.128Z,14.57
2018-06-24T04:01:15.081Z,14.60
2018-06-24T04:02:14.593Z,14.70
2018-06-24T04:04:10.583Z,14.80
2018-06-24T04:05:10.033Z,14.70
2018-06-24T04:07:06.513Z,14.75
2018-06-24T04:08:06.510Z,14.63
2018-06-24T04:10:01.970Z,14.70
2018-06-24T04:11:03.462Z,14.67
2018-06-24T04:12:57.895Z,14.75
2018-06-24T04:13:57.887Z,14.67
2018-06-24T04:15:53.833Z,14.67
2018-06-24T04:16:54.379Z,14.59
2018-06-24T04:18:49.806Z,14.67
2018-06-24T04:19:49.768Z,14.64
2018-06-24T04:21:45.746Z,14.69
2018-06-24T04:22:46.229Z,14.75
2018-06-24T04:24:42.153Z,14.82
2018-06-24T04:25:41.646Z,14.77
2018-06-24T04:27:40.513Z,14.80
2018-06-24T04:28:37.573Z,14.79
2018-06-24T04:30:33.558Z,14.85
2018-06-24T04:31:34.046Z,14.85
2018-06-24T04:33:29.507Z,14.77
2018-06-24T04:34:29.470Z,14.75
2018-06-24T04:36:26.338Z,14.83
2018-06-24T04:37:26.424Z,14.83
2018-06-24T04:39:21.463Z,14.89
2018-06-24T04:40:21.415Z,14.98
2018-06-24T04:42:18.380Z,14.95
2018-06-24T04:43:17.888Z,14.98
2018-06-24T04:45:16.784Z,14.97
2018-06-24T04:46:15.268Z,15.00
2018-06-24T04:48:11.240Z,15.18
2018-06-24T04:49:11.219Z,15.18
2018-06-24T04:51:09.603Z,15.37
2018-06-24T04:52:07.678Z,15.38
2018-06-24T04:54:03.176Z,15.47
2018-06-24T04:55:03.138Z,15.51
2018-06-24T04:56:59.596Z,15.51
2018-06-24T04:57:59.096Z,15.40
2018-06-24T04:59:56.063Z,15.41
2018-06-24T05:00:55.041Z,15.38
2018-06-24T05:02:53.190Z,15.34
2018-06-24T05:03:53.160Z,15.45
2018-06-24T05:05:49.616Z,15.35
2018-06-24T05:06:49.108Z,15.47
2018-06-24T05:08:45.044Z,15.52
2018-06-24T05:09:45.557Z,15.56
2018-06-24T05:11:41.001Z,15.52
2018-06-24T05:12:41.023Z,15.56
2018-06-24T05:14:36.918Z,15.62
2018-06-24T05:15:37.416Z,15.78
2018-06-24T05:17:32.857Z,16.10
2018-06-24T05:18:32.825Z,16.26
2018-06-24T05:20:28.775Z,16.63
2018-06-24T05:21:29.711Z,16.88
2018-06-24T05:23:24.723Z,17.12
2018-06-24T05:24:24.722Z,17.38
2018-06-24T05:26:21.679Z,17.69
2018-06-24T05:27:22.259Z,17.60
2018-06-24T05:29:16.493Z,17.39
2018-06-24T05:30:16.464Z,17.31
2018-06-24T05:32:12.416Z,17.35
2018-06-24T05:33:13.927Z,17.20
2018-06-24T05:35:09.292Z,17.21
2018-06-24T05:36:08.344Z,17.17
2018-06-24T05:38:09.328Z,17.10
2018-06-24T05:39:08.835Z,17.02
2018-06-24T05:41:07.284Z,16.97
2018-06-24T05:42:05.788Z,16.92
2018-06-24T05:44:01.301Z,16.87
2018-06-24T05:45:01.325Z,16.80
2018-06-24T05:46:57.208Z,16.67
2018-06-24T05:47:56.726Z,16.58
2018-06-24T05:49:52.645Z,16.47
2018-06-24T05:50:52.688Z,16.54
2018-06-24T05:52:49.109Z,16.45
2018-06-24T05:53:48.604Z,16.40
2018-06-24T05:55:44.529Z,16.45
2018-06-24T05:56:44.541Z,16.49
2018-06-24T05:58:40.500Z,16.44
2018-06-24T05:59:40.996Z,16.47
2018-06-24T06:01:36.463Z,16.54
2018-06-24T06:02:36.406Z,16.48
2018-06-24T06:04:32.357Z,16.49
2018-06-24T06:05:32.380Z,16.42
2018-06-24T06:07:29.347Z,16.49
2018-06-24T06:08:29.332Z,16.48
2018-06-24T06:10:25.392Z,16.42
2018-06-24T06:11:25.277Z,16.51
2018-06-24T06:13:24.740Z,16.51
2018-06-24T06:14:23.403Z,16.32
2018-06-24T06:16:19.317Z,16.47
2018-06-24T06:17:19.345Z,16.54
2018-06-24T06:19:15.794Z,16.49
2018-06-24T06:20:15.298Z,16.52
2018-06-24T06:22:11.740Z,16.45
2018-06-24T06:23:11.754Z,16.42
2018-06-24T06:25:07.684Z,16.47
2018-06-24T06:26:07.174Z,16.49
2018-06-24T06:28:03.633Z,16.57
2018-06-24T06:29:03.129Z,16.63
2018-06-24T06:30:59.086Z,16.67
2018-06-24T06:31:59.088Z,16.73
2018-06-24T06:33:56.517Z,16.80
2018-06-24T06:34:55.036Z,16.82
2018-06-24T06:36:52.019Z,16.84
2018-06-24T06:37:50.962Z,16.74
2018-06-24T06:39:46.917Z,16.59
2018-06-24T06:40:46.937Z,16.80
2018-06-24T06:42:42.926Z,17.07
2018-06-24T06:43:43.882Z,17.12
2018-06-24T06:45:39.524Z,17.38
2018-06-24T06:46:38.839Z,17.39
2018-06-24T06:48:34.891Z,17.55
2018-06-24T06:49:34.866Z,17.62
2018-06-24T06:51:31.768Z,17.65
2018-06-24T06:52:31.283Z,17.66
2018-06-24T06:54:27.210Z,17.84
2018-06-24T06:55:26.688Z,18.08
2018-06-24T06:57:24.639Z,18.08
2018-06-24T06:58:22.640Z,18.11
2018-06-24T07:00:20.620Z,18.20
2018-06-24T07:01:20.594Z,18.36
2018-06-24T07:03:17.112Z,18.44
2018-06-24T07:04:16.554Z,18.41
2018-06-24T07:06:13.018Z,18.53
2018-06-24T07:07:12.538Z,18.53
2018-06-24T07:09:08.464Z,18.63
2018-06-24T07:10:08.977Z,18.65
2018-06-24T07:12:04.373Z,18.57
2018-06-24T07:13:04.466Z,18.42
2018-06-24T07:15:00.852Z,18.39
2018-06-24T07:16:00.866Z,18.50
2018-06-24T07:17:57.312Z,18.59
2018-06-24T07:18:56.822Z,18.60
2018-06-24T07:20:54.801Z,18.75
2018-06-24T07:21:54.456Z,18.71
2018-06-24T07:23:50.442Z,18.69
2018-06-24T07:24:50.411Z,18.65
2018-06-24T07:26:47.382Z,18.59
2018-06-24T07:27:46.443Z,18.51
2018-06-24T07:29:42.336Z,18.38
2018-06-24T07:30:42.341Z,18.35
2018-06-24T07:32:38.344Z,18.36
2018-06-24T07:33:38.402Z,18.53
2018-06-24T07:35:34.314Z,18.68
2018-06-24T07:37:50.272Z,18.59
2018-06-24T07:38:50.276Z,18.63
2018-06-24T07:40:46.255Z,18.72
2018-06-24T07:41:46.239Z,18.63
2018-06-24T07:43:42.725Z,18.60
2018-06-24T07:44:42.211Z,18.60
2018-06-24T07:46:38.163Z,18.51
2018-06-24T07:47:38.147Z,18.42
2018-06-24T07:49:34.645Z,18.49
2018-06-24T07:50:34.089Z,18.54
2018-06-24T07:52:30.066Z,18.59
2018-06-24T07:53:30.551Z,18.60
2018-06-24T07:55:25.951Z,18.59
2018-06-24T07:56:25.980Z,18.65
2018-06-24T07:58:21.931Z,18.47
2018-06-24T07:59:21.918Z,18.51
2018-06-24T08:01:17.858Z,18.38
2018-06-24T08:02:17.866Z,18.38
2018-06-24T08:04:14.345Z,18.38
2018-06-24T08:05:14.378Z,18.36
2018-06-24T08:07:11.300Z,18.26
2018-06-24T08:08:09.777Z,18.14
2018-06-24T08:10:05.752Z,18.13
2018-06-24T08:11:06.248Z,18.14
2018-06-24T08:13:02.693Z,18.03
2018-06-24T08:14:01.707Z,18.01
2018-06-24T08:15:57.660Z,18.05
2018-06-24T08:16:57.667Z,18.02
2018-06-24T08:18:58.618Z,17.90
2018-06-24T08:19:58.132Z,17.95
2018-06-24T08:21:55.077Z,17.99
2018-06-24T08:22:54.120Z,18.02
2018-06-24T08:24:51.482Z,18.13
2018-06-24T08:25:49.971Z,18.11
2018-06-24T08:27:48.080Z,18.16
2018-06-24T08:28:49.422Z,18.20
2018-06-24T08:30:45.891Z,18.20
2018-06-24T08:31:45.935Z,18.24
2018-06-24T08:33:42.831Z,18.31
2018-06-24T08:34:41.819Z,18.34
2018-06-24T08:36:39.760Z,18.39
2018-06-24T08:37:39.801Z,18.49
2018-06-24T08:39:35.758Z,18.44
2018-06-24T08:40:35.818Z,18.41
2018-06-24T08:42:34.229Z,18.32
2018-06-24T08:43:33.843Z,18.41
2018-06-24T08:45:29.798Z,18.47
2018-06-24T08:46:29.799Z,18.51
2018-06-24T08:48:26.683Z,18.61
2018-06-24T08:49:25.738Z,18.60
2018-06-24T08:51:29.732Z,18.59
2018-06-24T08:52:30.716Z,18.75
2018-06-24T08:54:26.220Z,18.89
2018-06-24T08:55:25.676Z,19.05
2018-06-24T08:57:21.659Z,19.12
2018-06-24T08:58:21.660Z,19.12
2018-06-24T09:00:17.633Z,19.06
2018-06-24T09:01:17.604Z,19.05
2018-06-24T09:03:14.614Z,19.13
2018-06-24T09:04:13.594Z,19.25
2018-06-24T09:06:10.036Z,19.19
2018-06-24T09:07:10.076Z,19.13
2018-06-24T09:09:06.008Z,19.19
2018-06-24T09:10:05.491Z,19.23
2018-06-24T09:12:04.449Z,19.20
2018-06-24T09:13:03.586Z,19.24
2018-06-24T09:14:59.577Z,19.15
2018-06-24T09:15:59.674Z,19.17
2018-06-24T09:17:56.496Z,19.30
2018-06-24T09:18:55.500Z,19.43
2018-06-24T09:20:52.458Z,19.43
2018-06-24T09:21:51.455Z,19.55
2018-06-24T09:23:50.396Z,19.50
2018-06-24T09:24:50.420Z,19.60
2018-06-24T09:26:46.362Z,19.60
2018-06-24T09:27:46.354Z,19.56
2018-06-24T09:29:42.834Z,19.52
2018-06-24T09:30:42.361Z,19.52
2018-06-24T09:32:38.352Z,19.34
2018-06-24T09:33:38.310Z,19.45
2018-06-24T09:35:34.783Z,19.34
2018-06-24T09:36:34.302Z,19.38
2018-06-24T09:38:30.262Z,19.65
2018-06-24T09:39:30.278Z,19.70
2018-06-24T09:41:26.272Z,19.65
2018-06-24T09:42:26.268Z,19.70
2018-06-24T09:44:22.203Z,19.65
2018-06-24T09:45:22.231Z,19.71
2018-06-24T09:47:27.048Z,19.75
2018-06-24T09:48:27.056Z,19.89
2018-06-24T09:50:23.522Z,19.89
2018-06-24T09:51:23.029Z,19.86
2018-06-24T09:53:20.473Z,19.92
2018-06-24T09:54:19.472Z,19.68
2018-06-24T09:56:14.927Z,19.74
2018-06-24T09:57:14.932Z,19.90
2018-06-24T09:59:11.938Z,19.85
2018-06-24T10:00:10.864Z,19.85
2018-06-24T10:02:07.349Z,19.89
2018-06-24T10:03:06.814Z,19.86
2018-06-24T10:05:02.776Z,19.87
2018-06-24T10:06:03.265Z,19.70
2018-06-24T10:07:59.236Z,19.74
2018-06-24T10:10:19.201Z,19.93
2018-06-24T10:11:19.207Z,20.04
2018-06-24T10:13:15.184Z,19.82
2018-06-24T10:14:15.677Z,19.74
2018-06-24T10:16:11.164Z,19.71
2018-06-24T10:17:11.104Z,19.70
2018-06-24T10:19:07.081Z,20.00
2018-06-24T10:20:07.060Z,20.08
2018-06-24T10:22:02.987Z,20.30
2018-06-24T10:23:03.003Z,20.38
2018-06-24T10:24:58.956Z,20.27
2018-06-24T10:25:58.984Z,20.25
2018-06-24T10:27:55.394Z,20.25
2018-06-24T10:30:11.906Z,20.22
2018-06-24T10:31:11.371Z,20.10
2018-06-24T10:33:08.326Z,20.12
2018-06-24T10:34:06.806Z,19.93
2018-06-24T10:36:03.300Z,19.83
2018-06-24T10:37:02.765Z,19.97
2018-06-24T10:38:58.739Z,20.08
2018-06-24T10:39:58.762Z,20.05
2018-06-24T10:41:55.223Z,20.05
2018-06-24T10:42:55.194Z,20.01
2018-06-24T10:44:51.123Z,20.04
2018-06-24T10:47:07.510Z,20.04
2018-06-24T10:48:06.610Z,19.79
2018-06-24T10:50:02.571Z,19.67
2018-06-24T10:51:02.560Z,19.53
2018-06-24T10:53:00.045Z,19.63
2018-06-24T10:53:59.015Z,19.64
2018-06-24T10:55:54.500Z,19.87
2018-06-24T10:56:54.478Z,19.92
2018-06-24T10:58:50.945Z,19.97
2018-06-24T10:59:50.416Z,19.92
2018-06-24T11:01:45.387Z,19.68
2018-06-24T11:02:44.841Z,19.55
2018-06-24T11:04:40.800Z,19.65
2018-06-24T11:05:41.301Z,19.65
2018-06-24T11:07:36.785Z,19.57
2018-06-24T11:08:36.770Z,19.63
2018-06-24T11:10:32.727Z,19.79
2018-06-24T11:11:32.726Z,19.93
2018-06-24T11:13:29.683Z,19.95
2018-06-24T11:14:28.699Z,19.98
2018-06-24T11:16:24.689Z,20.05
2018-06-24T11:17:24.661Z,20.08
2018-06-24T11:19:21.102Z,20.04
2018-06-24T11:20:20.591Z,20.05
2018-06-24T11:22:18.051Z,19.82
2018-06-24T11:23:16.519Z,19.75
2018-06-24T11:25:12.491Z,19.70
2018-06-24T11:26:12.494Z,19.71
2018-06-24T11:28:06.481Z,19.75
2018-06-24T11:29:05.990Z,19.85
2018-06-24T11:31:02.445Z,20.10
2018-06-24T11:32:01.938Z,20.23
2018-06-24T11:33:58.905Z,20.57
2018-06-24T11:34:57.921Z,20.67
2018-06-24T11:36:54.451Z,20.79
2018-06-24T11:37:53.879Z,20.97
2018-06-24T11:39:49.852Z,20.81
2018-06-24T11:40:49.841Z,20.85
2018-06-24T11:42:45.834Z,20.79
2018-06-24T11:43:45.798Z,20.79
2018-06-24T11:45:41.735Z,20.66
2018-06-24T11:46:41.751Z,20.63
2018-06-24T11:48:37.713Z,20.64
2018-06-24T11:49:37.698Z,20.63
2018-06-24T11:51:33.713Z,20.66
2018-06-24T11:52:33.629Z,20.71
2018-06-24T11:54:29.590Z,20.86
2018-06-24T11:55:30.081Z,20.98
2018-06-24T11:57:25.509Z,20.82
2018-06-24T11:58:25.525Z,20.98
2018-06-24T12:00:22.022Z,21.19
2018-06-24T12:01:21.482Z,21.13
2018-06-24T12:03:17.953Z,21.03
2018-06-24T12:04:17.597Z,21.01
2018-06-24T12:06:14.403Z,20.97
2018-06-24T12:07:13.418Z,20.97
2018-06-24T12:09:09.367Z,20.81
2018-06-24T12:10:09.363Z,20.79
2018-06-24T12:12:05.832Z,20.82
2018-06-24T12:13:05.320Z,20.94
2018-06-24T12:15:01.273Z,21.03
2018-06-24T12:16:01.767Z,21.13
2018-06-24T12:17:59.223Z,21.38
2018-06-24T12:18:57.253Z,21.38
2018-06-24T12:20:51.703Z,21.30
2018-06-24T12:21:52.182Z,21.31
2018-06-24T12:23:47.657Z,21.43
2018-06-24T12:24:48.656Z,21.38
2018-06-24T12:26:43.640Z,21.34
2018-06-24T12:27:43.613Z,21.45
2018-06-24T12:29:39.586Z,21.58
2018-06-24T12:30:40.086Z,21.49
2018-06-24T12:32:37.010Z,21.61
2018-06-24T12:33:36.446Z,21.58
2018-06-24T12:35:32.981Z,21.46
2018-06-24T12:36:31.477Z,21.37
2018-06-24T12:38:28.460Z,21.30
2018-06-24T12:39:27.448Z,21.38
2018-06-24T12:41:23.411Z,21.41
2018-06-24T12:42:24.401Z,21.45
2018-06-24T12:44:19.877Z,21.41
2018-06-24T12:45:19.366Z,21.34
2018-06-24T12:47:16.840Z,21.36
2018-06-24T12:48:16.327Z,21.38
2018-06-24T12:50:22.368Z,21.49
2018-06-24T12:51:22.349Z,21.70
2018-06-24T12:53:18.456Z,21.82
2018-06-24T12:54:18.326Z,21.96
2018-06-24T12:56:15.329Z,21.78
2018-06-24T12:57:14.344Z,21.76
2018-06-24T12:59:11.546Z,21.73
2018-06-24T13:00:10.751Z,21.83
2018-06-24T13:02:06.921Z,21.55
2018-06-24T13:03:06.817Z,21.64
2018-06-24T13:05:20.782Z,21.38
2018-06-24T13:06:22.240Z,21.34
2018-06-24T13:08:40.245Z,21.28
2018-06-24T13:09:27.710Z,21.31
2018-06-24T13:11:24.793Z,21.33
2018-06-24T13:12:23.793Z,21.33
2018-06-24T13:14:19.728Z,21.36
2018-06-24T13:15:19.756Z,21.22
2018-06-24T13:17:16.218Z,21.16
2018-06-24T13:18:16.206Z,21.28
2018-06-24T13:20:11.657Z,21.28
2018-06-24T13:21:11.659Z,21.38
2018-06-24T13:23:07.648Z,21.28
2018-06-24T13:24:08.627Z,21.34
2018-06-24T13:26:03.632Z,21.36
2018-06-24T13:27:03.673Z,21.43
2018-06-24T13:29:02.598Z,21.38
2018-06-24T13:30:01.725Z,21.37
2018-06-24T13:31:57.659Z,21.38
2018-06-24T13:32:58.196Z,21.40
2018-06-24T13:34:55.644Z,21.37
2018-06-24T13:35:55.629Z,21.52
2018-06-24T13:37:51.616Z,21.64
2018-06-24T13:38:52.284Z,21.56
2018-06-24T13:40:47.065Z,21.74
2018-06-24T13:41:47.048Z,21.64
2018-06-24T13:43:42.250Z,21.73
2018-06-24T13:44:42.232Z,21.80
2018-06-24T13:46:38.710Z,21.89
2018-06-24T13:47:38.202Z,21.64
2018-06-24T13:49:34.177Z,21.56
2018-06-24T13:50:34.166Z,21.64
2018-06-24T13:52:30.629Z,21.71
2018-06-24T13:53:30.622Z,21.61
2018-06-24T13:55:26.027Z,21.74
2018-06-24T13:56:26.040Z,21.74
2018-06-24T13:58:22.518Z,21.92
2018-06-24T13:59:21.991Z,21.92
2018-06-24T14:01:17.957Z,21.96
2018-06-24T14:02:17.972Z,21.92
2018-06-24T14:04:13.951Z,21.59
2018-06-24T14:05:13.947Z,21.52
2018-06-24T14:07:10.917Z,21.62
2018-06-24T14:08:11.402Z,21.45
2018-06-24T14:10:05.867Z,21.43
2018-06-24T14:11:05.883Z,21.49
2018-06-24T14:13:01.869Z,21.37
2018-06-24T14:14:02.841Z,21.25
2018-06-24T14:15:58.323Z,21.23
2018-06-24T14:16:57.824Z,21.19
2018-06-24T14:18:55.289Z,20.82
2018-06-24T14:19:55.280Z,20.90
2018-06-24T14:21:50.250Z,20.83
2018-06-24T14:22:51.254Z,20.83
2018-06-24T14:24:47.173Z,20.75
2018-06-24T14:25:45.666Z,20.76
2018-06-24T14:27:41.641Z,20.81
2018-06-24T14:28:42.126Z,20.86
2018-06-24T14:30:45.592Z,20.61
2018-06-24T14:31:45.599Z,20.57
2018-06-24T14:33:42.070Z,20.57
2018-06-24T14:34:43.042Z,20.54
2018-06-24T14:36:37.629Z,20.63
2018-06-24T14:37:37.522Z,20.68
2018-06-24T14:39:33.496Z,20.64
2018-06-24T14:40:33.492Z,20.67
2018-06-24T14:42:29.420Z,20.64
2018-06-24T14:43:29.445Z,20.57
2018-06-24T14:45:25.390Z,20.56
2018-06-24T14:46:25.394Z,20.68
2018-06-24T14:48:21.354Z,20.71
2018-06-24T14:49:21.346Z,20.83
2018-06-24T14:51:17.814Z,20.78
2018-06-24T14:52:17.299Z,20.66
2018-06-24T14:54:13.763Z,20.54
2018-06-24T14:55:14.774Z,20.56
2018-06-24T14:57:09.269Z,20.64
2018-06-24T14:58:10.224Z,20.51
2018-06-24T15:00:05.240Z,20.53
2018-06-24T15:01:06.721Z,20.53
2018-06-24T15:03:03.172Z,20.58
2018-06-24T15:04:01.182Z,20.42
2018-06-24T15:05:57.166Z,20.41
2018-06-24T15:06:57.139Z,20.49
2018-06-24T15:08:54.519Z,20.27
2018-06-24T15:09:53.587Z,20.25
2018-06-24T15:11:50.037Z,20.30
2018-06-24T15:12:49.011Z,20.41
2018-06-24T15:14:44.975Z,20.37
2018-06-24T15:15:44.946Z,20.40
2018-06-24T15:17:40.918Z,20.66
2018-06-24T15:18:42.413Z,20.67
2018-06-24T15:20:37.368Z,20.60
2018-06-24T15:21:37.362Z,20.58
2018-06-24T15:23:31.339Z,20.57
2018-06-24T15:24:31.332Z,20.53
2018-06-24T15:26:27.284Z,20.56
2018-06-24T15:27:27.299Z,20.64
2018-06-24T15:29:23.252Z,20.63
2018-06-24T15:30:23.288Z,20.64
2018-06-24T15:32:20.225Z,20.61
2018-06-24T15:33:19.189Z,20.71
2018-06-24T15:35:15.155Z,20.71
2018-06-24T15:36:15.644Z,20.56
2018-06-24T15:38:11.129Z,20.34
2018-06-24T15:39:11.108Z,20.34
2018-06-24T15:41:07.570Z,20.37
2018-06-24T15:42:07.055Z,20.38
2018-06-24T15:44:04.021Z,20.37
2018-06-24T15:45:03.029Z,20.44
2018-06-24T15:46:59.989Z,20.41
2018-06-24T15:47:58.980Z,20.42
2018-06-24T15:49:54.960Z,20.34
2018-06-24T15:50:55.432Z,20.27
2018-06-24T15:52:48.412Z,20.22
2018-06-24T15:53:48.394Z,20.20
2018-06-24T15:55:45.361Z,19.93
2018-06-24T15:56:44.389Z,19.93
2018-06-24T15:58:39.845Z,19.92
2018-06-24T15:59:39.844Z,19.95
2018-06-24T16:01:37.823Z,19.93
2018-06-24T16:02:36.976Z,19.85
2018-06-24T16:04:31.449Z,19.83
2018-06-24T16:05:31.936Z,19.78
2018-06-24T16:07:25.891Z,19.67
2018-06-24T16:08:26.424Z,19.71
2018-06-24T16:10:22.855Z,19.74
2018-06-24T16:11:21.853Z,19.72
2018-06-24T16:13:16.320Z,19.75
2018-06-24T16:14:17.840Z,19.64
2018-06-24T16:16:12.301Z,19.57
2018-06-24T16:17:12.254Z,19.55
2018-06-24T16:19:17.230Z,19.42
2018-06-24T16:20:18.705Z,19.42
2018-06-24T16:22:12.740Z,19.40
2018-06-24T16:23:13.238Z,19.42
2018-06-24T16:25:09.153Z,19.25
2018-06-24T16:26:09.165Z,19.24
2018-06-24T16:28:05.651Z,19.15
2018-06-24T16:29:05.119Z,19.17
2018-06-24T16:30:59.993Z,19.12
2018-06-24T16:31:59.574Z,19.15
2018-06-24T16:33:53.528Z,19.19
2018-06-24T16:34:54.544Z,19.17
2018-06-24T16:36:49.499Z,19.17
2018-06-24T16:37:50.502Z,19.15
2018-06-24T16:39:46.463Z,19.17
2018-06-24T16:40:45.436Z,19.34
2018-06-24T16:42:41.443Z,19.38
2018-06-24T16:43:41.904Z,19.49
2018-06-24T16:45:37.344Z,19.56
2018-06-24T16:46:37.349Z,19.65
2018-06-24T16:48:31.799Z,19.72
2018-06-24T16:49:31.825Z,19.67
2018-06-24T16:51:27.784Z,19.71
2018-06-24T16:52:28.769Z,19.68
2018-06-24T16:54:23.704Z,19.68
2018-06-24T16:55:23.720Z,19.65
2018-06-24T16:57:19.712Z,19.50
2018-06-24T16:58:19.706Z,19.53
2018-06-24T17:00:16.149Z,19.45
2018-06-24T17:01:16.158Z,19.28
2018-06-24T17:03:12.620Z,19.24
2018-06-24T17:04:11.595Z,19.27
2018-06-24T17:06:06.079Z,19.17
2018-06-24T17:07:06.054Z,19.24
2018-06-24T17:08:59.541Z,19.19
2018-06-24T17:09:59.538Z,19.23
2018-06-24T17:11:55.473Z,19.15
2018-06-24T17:12:55.957Z,19.00
2018-06-24T17:14:50.875Z,19.06
2018-06-24T17:15:50.374Z,19.00
2018-06-24T17:17:47.318Z,19.07
2018-06-24T17:18:46.346Z,19.00
2018-06-24T17:20:40.257Z,19.02
2018-06-24T17:21:41.766Z,19.02
2018-06-24T17:23:38.234Z,18.99
2018-06-24T17:25:52.173Z,18.82
2018-06-24T17:26:50.662Z,18.81
2018-06-24T17:28:46.123Z,18.82
2018-06-24T17:29:45.632Z,18.74
2018-06-24T17:31:44.501Z,18.60
2018-06-24T17:32:43.031Z,18.74
2018-06-24T17:34:38.997Z,18.75
2018-06-24T17:35:38.978Z,18.74
2018-06-24T17:37:35.438Z,18.71
2018-06-24T17:38:34.941Z,18.74
2018-06-24T17:40:28.419Z,18.65
2018-06-24T17:41:28.390Z,18.61
2018-06-24T17:43:24.396Z,18.63
2018-06-24T17:44:24.359Z,18.63
2018-06-24T17:46:19.827Z,18.66
2018-06-24T17:47:18.843Z,18.72
2018-06-24T17:49:14.806Z,18.76
2018-06-24T17:50:14.790Z,18.87
2018-06-24T17:52:09.190Z,18.99
2018-06-24T17:53:09.279Z,19.07
2018-06-24T17:55:03.733Z,19.10
2018-06-24T17:56:03.673Z,19.16
2018-06-24T17:57:58.625Z,18.99
2018-06-24T17:58:58.099Z,19.02
2018-06-24T18:00:52.583Z,18.96
2018-06-24T18:01:53.569Z,18.81
2018-06-24T18:03:47.531Z,18.79
2018-06-24T18:04:47.553Z,18.74
2018-06-24T18:06:41.988Z,18.61
2018-06-24T18:07:42.004Z,18.68
2018-06-24T18:09:36.430Z,18.61
2018-06-24T18:10:35.933Z,18.63
2018-06-24T18:12:31.901Z,18.50
2018-06-24T18:13:31.860Z,18.50
2018-06-24T18:15:26.807Z,18.63
2018-06-24T18:16:26.809Z,18.60
2018-06-24T18:18:21.768Z,18.60
2018-06-24T18:19:20.748Z,18.49
2018-06-24T18:21:15.229Z,18.57
2018-06-24T18:22:15.215Z,18.49
2018-06-24T18:24:09.648Z,18.53
2018-06-24T18:25:09.658Z,18.42
2018-06-24T18:27:04.148Z,18.45
2018-06-24T18:28:04.158Z,18.44
2018-06-24T18:30:00.112Z,18.53
2018-06-24T18:31:00.588Z,18.49
2018-06-24T18:32:55.039Z,18.49
2018-06-24T18:33:54.539Z,18.42
2018-06-24T18:35:48.979Z,18.39
2018-06-24T18:36:49.496Z,18.39
2018-06-24T18:38:46.471Z,18.34
2018-06-24T18:39:45.981Z,18.41
2018-06-24T18:41:42.926Z,18.39
2018-06-24T18:42:42.877Z,18.41
2018-06-24T18:44:38.844Z,18.29
2018-06-24T18:45:37.321Z,18.26
2018-06-24T18:47:31.768Z,18.32
2018-06-24T18:48:32.272Z,18.34
2018-06-24T18:50:27.758Z,18.35
2018-06-24T18:51:27.738Z,18.32
2018-06-24T18:53:24.678Z,18.19
2018-06-24T18:54:23.679Z,18.14
2018-06-24T18:56:21.806Z,18.14
2018-06-24T18:57:21.816Z,18.10